Time;durP1;ratioP1;P1;durP2;ratioP2;P2;SDS_P1;SDS_P2;PMS_P1;PMS_P2;Temp;Humidity;BMP_temperature;BMP_pressure;BME280_temperature;BME280_humidity;BME280_pressure;Samples;Min_cycle;Max_cycle;Signal;HPM_P1;HPM_P2
2023/06/18 00:01:37;;;;;;;;;;;;;;;;;;137799;1271;22583;-83
2023/06/18 00:04:39;;;;;;;;;;;;;;;;;;137669;1271;22564;-83
2023/06/18 00:07:42;;;;;;;;;;;;;;;;;;137914;1272;22345;-83
2023/06/18 00:10:44;;;;;;;;;;;;;;;;;;137842;1271;22523;-83
2023/06/18 00:13:46;;;;;;;;;;;;;;;;;;137734;1271;22514;-83
2023/06/18 00:16:49;;;;;;;;;;;;;;;;;;137838;1271;22528;-82
2023/06/18 00:19:51;;;;;;;;;;;;;;;;;;137771;1271;22853;-83
2023/06/18 00:22:54;;;;;;;;;;;;;;;;;;137733;1271;22518;-83
2023/06/18 00:25:56;;;;;;;;;;;;;;;;;;137827;1271;22957;-83
2023/06/18 00:29:00;;;;;;;;;;;;;;;;;;137810;1271;22509;-83
2023/06/18 00:32:03;;;;;;;;;;;;;;;;;;137828;1271;22537;-83
2023/06/18 00:35:05;;;;;;;;;;;;;;;;;;137697;1272;22502;-83
2023/06/18 00:38:08;;;;;;;;;;;;;;;;;;137797;1269;22528;-83
2023/06/18 00:41:10;;;;;;;;;;;;;;;;;;137860;1271;22374;-83
2023/06/18 00:44:13;;;;;;;;;;;;;;;;;;137726;1271;22563;-83
2023/06/18 00:47:17;;;;;;;;;;;;;;;;;;137840;1271;22534;-83
2023/06/18 00:50:19;;;;;;;;;;;;;;;;;;137755;1271;22505;-83
2023/06/18 00:53:22;;;;;;;;;;;;;;;;;;137773;1271;22510;-83
2023/06/18 00:56:25;;;;;;;;;;;;;;;;;;137766;1271;22500;-83
2023/06/18 00:59:27;;;;;;;;;;;;;;;;;;137787;1269;22487;-83
2023/06/18 01:02:30;;;;;;;;;;;;;;;;;;137861;1271;22259;-83
2023/06/18 01:05:33;;;;;;;;;;;;;;;;;;137731;1271;22505;-82
2023/06/18 01:08:35;;;;;;;;;;;;;;;;;;137764;1271;22855;-82
2023/06/18 01:11:40;;;;;;;;;;;;;;;;;;137782;1271;22996;-82
2023/06/18 01:14:50;;;;;;;;;;;;;;;;;;137715;1271;22563;-83
2023/06/18 01:17:56;;;;;;;;;;;;;;;;;;137843;1271;22483;-81
2023/06/18 01:20:59;;;;;;;;;;;;;;;;;;137741;1271;22544;-82
2023/06/18 01:24:03;;;;;;;;;;;;;;;;;;137678;1272;22587;-81
2023/06/18 01:27:06;;;;;;;;;;;;;;;;;;137467;1271;22536;-81
2023/06/18 01:30:09;;;;;;;;;;;;;;;;;;137481;1271;22523;-81
2023/06/18 01:33:12;;;;;;;;;;;;;;;;;;137574;1271;22525;-82
2023/06/18 01:36:15;;;;;;;;;;;;;;;;;;137555;1271;22513;-82
2023/06/18 01:39:17;;;;;;;;;;;;;;;;;;137703;1271;22601;-82
2023/06/18 01:42:20;;;;;;;;;;;;;;;;;;137686;1271;23027;-82
2023/06/18 01:45:22;;;;;;;;;;;;;;;;;;137762;1271;22515;-83
2023/06/18 01:48:25;;;;;;;;;;;;;;;;;;137716;1271;22526;-82
2023/06/18 01:51:27;;;;;;;;;;;;;;;;;;137815;1271;22531;-83
2023/06/18 01:54:30;;;;;;;;;;;;;;;;;;137691;1271;22512;-82
2023/06/18 01:57:33;;;;;;;;;;;;;;;;;;137835;1271;22323;-82
2023/06/18 02:00:35;;;;;;;;;;;;;;;;;;137763;1269;22543;-82
2023/06/18 02:03:38;;;;;;;;;;;;;;;;;;137727;1271;22952;-83
2023/06/18 02:06:40;;;;;;;;;;;;;;;;;;137803;1271;22496;-84
2023/06/18 02:09:43;;;;;;;;;;;;;;;;;;137862;1271;22968;-84
2023/06/18 02:12:45;;;;;;;;;;;;;;;;;;137819;1271;22496;-84
2023/06/18 02:15:47;;;;;;;;;;;;;;;;;;137813;1269;22572;-84
2023/06/18 02:18:50;;;;;;;;;;;;;;;;;;137812;1271;22535;-84
2023/06/18 02:21:52;;;;;;;;;;;;;;;;;;137793;1271;22553;-84
2023/06/18 02:24:55;;;;;;;;;;;;;;;;;;137861;1271;22813;-83
2023/06/18 02:27:58;;;;;;;;;;;;;;;;;;137751;1272;22513;-83
2023/06/18 02:31:01;;;;;;;;;;;;;;;;;;137806;1271;23058;-83
2023/06/18 02:34:04;;;;;;;;;;;;;;;;;;137830;1271;22559;-83
2023/06/18 02:37:08;;;;;;;;;;;;;;;;;;137786;1272;23050;-83
2023/06/18 02:40:11;;;;;;;;;;;;;;;;;;137699;1272;22571;-83
2023/06/18 02:43:13;;;;;;;;;;;;;;;;;;137812;1271;22498;-82
2023/06/18 02:46:16;;;;;;;;;;;;;;;;;;137806;1271;22512;-84
2023/06/18 02:49:18;;;;;;;;;;;;;;;;;;137677;1271;22516;-84
2023/06/18 02:52:21;;;;;;;;;;;;;;;;;;137695;1271;22564;-84
2023/06/18 02:55:23;;;;;;;;;;;;;;;;;;137747;1271;22569;-84
2023/06/18 02:58:28;;;;;;;;;;;;;;;;;;137837;1271;22936;-83
2023/06/18 03:01:31;;;;;;;;;;;;;;;;;;137872;1271;22361;-84
2023/06/18 03:04:34;;;;;;;;;;;;;;;;;;137774;1271;22503;-82
2023/06/18 03:07:37;;;;;;;;;;;;;;;;;;137698;1271;22511;-83
2023/06/18 03:10:39;;;;;;;;;;;;;;;;;;137759;1271;22554;-83
2023/06/18 03:13:42;;;;;;;;;;;;;;;;;;137732;1271;22635;-83
2023/06/18 03:16:44;;;;;;;;;;;;;;;;;;137864;1271;22860;-83
2023/06/18 03:19:47;;;;;;;;;;;;;;;;;;137794;1267;22502;-83
2023/06/18 03:22:49;;;;;;;;;;;;;;;;;;137861;1271;23081;-83
2023/06/18 03:25:52;;;;;;;;;;;;;;;;;;137842;1271;22946;-84
2023/06/18 03:28:58;;;;;;;;;;;;;;;;;;137737;1271;22866;-83
2023/06/18 03:32:00;;;;;;;;;;;;;;;;;;137842;1271;22546;-84
2023/06/18 03:35:04;;;;;;;;;;;;;;;;;;137769;1271;22523;-83
2023/06/18 03:38:06;;;;;;;;;;;;;;;;;;137629;1271;25210;-84
2023/06/18 03:41:10;;;;;;;;;;;;;;;;;;137785;1271;22597;-84
2023/06/18 03:44:13;;;;;;;;;;;;;;;;;;137816;1271;22483;-84
2023/06/18 03:47:15;;;;;;;;;;;;;;;;;;137836;1271;22835;-85
2023/06/18 03:50:18;;;;;;;;;;;;;;;;;;137840;1271;22555;-83
2023/06/18 03:53:22;;;;;;;;;;;;;;;;;;137701;1271;22527;-84
2023/06/18 03:56:24;;;;;;;;;;;;;;;;;;137658;1271;22521;-84
2023/06/18 03:59:29;;;;;;;;;;;;;;;;;;137782;1272;22490;-85
2023/06/18 04:02:32;;;;;;;;;;;;;;;;;;137747;1271;23054;-85
2023/06/18 04:05:34;;;;;;;;;;;;;;;;;;137889;1271;23097;-84
2023/06/18 04:08:37;;;;;;;;;;;;;;;;;;137860;1271;22264;-84
2023/06/18 04:11:40;;;;;;;;;;;;;;;;;;137878;1271;22913;-84
2023/06/18 04:14:42;;;;;;;;;;;;;;;;;;137788;1271;22541;-82
2023/06/18 04:17:45;;;;;;;;;;;;;;;;;;137804;1271;22536;-83
2023/06/18 04:20:47;;;;;;;;;;;;;;;;;;137854;1271;22510;-82
2023/06/18 04:23:50;;;;;;;;;;;;;;;;;;137859;1271;22317;-83
2023/06/18 04:26:52;;;;;;;;;;;;;;;;;;137669;1271;22549;-84
2023/06/18 04:29:55;;;;;;;;;;;;;;;;;;137696;1271;22559;-82
2023/06/18 04:32:57;;;;;;;;;;;;;;;;;;137738;1271;22503;-83
2023/06/18 04:36:00;;;;;;;;;;;;;;;;;;137788;1271;22973;-84
2023/06/18 04:39:02;;;;;;;;;;;;;;;;;;137807;1271;22269;-82
2023/06/18 04:42:05;;;;;;;;;;;;;;;;;;137894;1271;22357;-82
2023/06/18 04:45:09;;;;;;;;;;;;;;;;;;137842;1271;22321;-82
2023/06/18 04:48:11;;;;;;;;;;;;;;;;;;137763;1271;22499;-83
2023/06/18 04:51:14;;;;;;;;;;;;;;;;;;137774;1267;22515;-82
2023/06/18 04:54:16;;;;;;;;;;;;;;;;;;137825;1271;22530;-82
2023/06/18 04:57:19;;;;;;;;;;;;;;;;;;137823;1271;22494;-82
2023/06/18 05:00:21;;;;;;;;;;;;;;;;;;137775;1271;22492;-82
2023/06/18 05:03:24;;;;;;;;;;;;;;;;;;137792;1271;22482;-82
2023/06/18 05:06:26;;;;;;;;;;;;;;;;;;137795;1271;22529;-83
2023/06/18 05:09:29;;;;;;;;;;;;;;;;;;137715;1271;22501;-84
2023/06/18 05:12:31;;;;;;;;;;;;;;;;;;137905;1271;22294;-84
2023/06/18 05:15:34;;;;;;;;;;;;;;;;;;137567;1271;22514;-83
2023/06/18 05:18:36;;;;;;;;;;;;;;;;;;137527;1271;22872;-84
2023/06/18 05:21:42;;;;;;;;;;;;;;;;;;137862;1271;22614;-82
2023/06/18 05:24:44;;;;;;;;;;;;;;;;;;137310;1271;22513;-84
2023/06/18 05:27:47;;;;;;;;;;;;;;;;;;137667;1256;22492;-82
2023/06/18 05:30:49;;;;;;;;;;;;;;;;;;137895;1271;22290;-82
2023/06/18 05:33:51;;;;;;;;;;;;;;;;;;137894;1271;22376;-83
2023/06/18 05:36:57;;;;;;;;;;;;;;;;;;137847;1271;23009;-82
2023/06/18 05:40:00;;;;;;;;;;;;;;;;;;137856;1271;22823;-82
2023/06/18 05:43:03;;;;;;;;;;;;;;;;;;137791;1271;22500;-83
2023/06/18 05:46:05;;;;;;;;;;;;;;;;;;137821;1267;22593;-83
2023/06/18 05:49:11;;;;;;;;;;;;;;;;;;137685;1271;22486;-83
2023/06/18 05:52:13;;;;;;;;;;;;;;;;;;137709;1271;22605;-83
2023/06/18 05:55:18;;;;;;;;;;;;;;;;;;137734;1271;22524;-83
2023/06/18 05:58:22;;;;;;;;;;;;;;;;;;137781;1271;22494;-83
2023/06/18 06:01:25;;;;;;;;;;;;;;;;;;137772;1271;22561;-83
2023/06/18 06:04:28;;;;;;;;;;;;;;;;;;137720;1271;22508;-83
2023/06/18 06:07:30;;;;;;;;;;;;;;;;;;137472;1271;346275;-83
2023/06/18 06:10:33;;;;;;;;;;;;;;;;;;137643;1267;22499;-83
2023/06/18 06:13:35;;;;;;;;;;;;;;;;;;137815;1271;22494;-84
2023/06/18 06:16:37;;;;;;;;;;;;;;;;;;137716;1271;22977;-83
2023/06/18 06:19:40;;;;;;;;;;;;;;;;;;137755;1271;22505;-83
2023/06/18 06:22:42;;;;;;;;;;;;;;;;;;137824;1271;22503;-83
2023/06/18 06:25:45;;;;;;;;;;;;;;;;;;137640;1271;22530;-83
2023/06/18 06:28:48;;;;;;;;;;;;;;;;;;137789;1271;22548;-84
2023/06/18 06:31:50;;;;;;;;;;;;;;;;;;137877;1271;22480;-83
2023/06/18 06:34:52;;;;;;;;;;;;;;;;;;137821;1271;22532;-83
2023/06/18 06:37:55;;;;;;;;;;;;;;;;;;137832;1271;22518;-84
2023/06/18 06:40:58;;;;;;;;;;;;;;;;;;137726;1271;24217;-83
2023/06/18 06:44:00;;;;;;;;;;;;;;;;;;137859;1271;22384;-82
2023/06/18 06:47:03;;;;;;;;;;;;;;;;;;137781;1271;22548;-82
2023/06/18 06:50:06;;;;;;;;;;;;;;;;;;137818;1271;22781;-83
2023/06/18 06:53:08;;;;;;;;;;;;;;;;;;137662;1271;22554;-83
2023/06/18 06:56:11;;;;;;;;;;;;;;;;;;137761;1271;22538;-84
2023/06/18 06:59:13;;;;;;;;;;;;;;;;;;137792;1271;22289;-83
2023/06/18 07:02:16;;;;;;;;;;;;;;;;;;137892;1271;22391;-83
2023/06/18 07:05:18;;;;;;;;;;;;;;;;;;137748;1271;22974;-83
2023/06/18 07:08:21;;;;;;;;;;;;;;;;;;137730;1271;22590;-84
2023/06/18 07:11:23;;;;;;;;;;;;;;;;;;137813;1264;22532;-84
2023/06/18 07:14:26;;;;;;;;;;;;;;;;;;137798;1267;22911;-85
2023/06/18 07:17:28;;;;;;;;;;;;;;;;;;137840;1271;22243;-85
2023/06/18 07:20:30;;;;;;;;;;;;;;;;;;137754;1271;22528;-83
2023/06/18 07:23:33;;;;;;;;;;;;;;;;;;137753;1263;22561;-83
2023/06/18 07:26:35;;;;;;;;;;;;;;;;;;137867;1271;22330;-84
2023/06/18 07:29:38;;;;;;;;;;;;;;;;;;137832;1259;22305;-84
2023/06/18 07:32:40;;;;;;;;;;;;;;;;;;137800;1271;22397;-84
2023/06/18 07:35:43;;;;;;;;;;;;;;;;;;137791;1271;22536;-83
2023/06/18 07:38:45;;;;;;;;;;;;;;;;;;137842;1271;22519;-83
2023/06/18 07:41:49;;;;;;;;;;;;;;;;;;137741;1271;22521;-83
2023/06/18 07:44:54;;;;;;;;;;;;;;;;;;137813;1263;22534;-84
2023/06/18 07:47:56;;;;;;;;;;;;;;;;;;137677;1271;22986;-83
2023/06/18 07:50:59;;;;;;;;;;;;;;;;;;137778;1271;22961;-83
2023/06/18 07:54:01;;;;;;;;;;;;;;;;;;137878;1271;22535;-84
2023/06/18 07:57:04;;;;;;;;;;;;;;;;;;137583;1271;22503;-84
2023/06/18 08:00:06;;;;;;;;;;;;;;;;;;137738;1271;23052;-85
2023/06/18 08:03:09;;;;;;;;;;;;;;;;;;137707;1271;22527;-83
2023/06/18 08:06:11;;;;;;;;;;;;;;;;;;137748;1267;22473;-83
2023/06/18 08:09:14;;;;;;;;;;;;;;;;;;137727;1271;22527;-83
2023/06/18 08:12:16;;;;;;;;;;;;;;;;;;137840;1271;23223;-83
2023/06/18 08:15:18;;;;;;;;;;;;;;;;;;137791;1271;22510;-84
2023/06/18 08:18:21;;;;;;;;;;;;;;;;;;137678;1271;22492;-83
2023/06/18 08:21:23;;;;;;;;;;;;;;;;;;137924;1271;22333;-82
2023/06/18 08:24:26;;;;;;;;;;;;;;;;;;137809;1271;22521;-84
2023/06/18 08:27:28;;;;;;;;;;;;;;;;;;137774;1271;22498;-83
2023/06/18 08:30:31;;;;;;;;;;;;;;;;;;137771;1271;22502;-84
2023/06/18 08:33:33;;;;;;;;;;;;;;;;;;137685;1271;22596;-83
2023/06/18 08:36:36;;;;;;;;;;;;;;;;;;137743;1271;22541;-83
2023/06/18 08:39:38;;;;;;;;;;;;;;;;;;137778;1271;22786;-83
2023/06/18 08:42:40;;;;;;;;;;;;;;;;;;137731;1271;22584;-84
2023/06/18 08:45:43;;;;;;;;;;;;;;;;;;137830;1271;23420;-84
2023/06/18 08:48:46;;;;;;;;;;;;;;;;;;137836;1271;22887;-83
2023/06/18 08:51:48;;;;;;;;;;;;;;;;;;137803;1257;22591;-84
2023/06/18 08:54:50;;;;;;;;;;;;;;;;;;137840;1271;22550;-83
2023/06/18 08:57:53;;;;;;;;;;;;;;;;;;137804;1271;22752;-83
2023/06/18 09:00:55;;;;;;;;;;;;;;;;;;137854;1271;22839;-83
2023/06/18 09:03:58;;;;;;;;;;;;;;;;;;137834;1271;22492;-82
2023/06/18 09:07:00;;;;;;;;;;;;;;;;;;137837;1271;22968;-82
2023/06/18 09:10:03;;;;;;;;;;;;;;;;;;137834;1271;22233;-83
2023/06/18 09:13:05;;;;;;;;;;;;;;;;;;137759;1271;22485;-83
2023/06/18 09:16:08;;;;;;;;;;;;;;;;;;137735;1271;22537;-83
2023/06/18 09:19:10;;;;;;;;;;;;;;;;;;137793;1271;22847;-84
2023/06/18 09:22:13;;;;;;;;;;;;;;;;;;137852;1271;22480;-83
2023/06/18 09:25:16;;;;;;;;;;;;;;;;;;137831;1271;22495;-82
2023/06/18 09:28:18;;;;;;;;;;;;;;;;;;137813;1271;22546;-83
2023/06/18 09:31:21;;;;;;;;;;;;;;;;;;137818;1271;22412;-83
2023/06/18 09:34:23;;;;;;;;;;;;;;;;;;137793;1271;22515;-83
2023/06/18 09:37:25;;;;;;;;;;;;;;;;;;137815;1271;22451;-83
2023/06/18 09:40:33;;;;;;;;;;;;;;;;;;137674;1271;22570;-83
2023/06/18 09:43:35;;;;;;;;;;;;;;;;;;137780;1271;22533;-83
2023/06/18 09:46:41;;;;;;;;;;;;;;;;;;137380;1271;22947;-83
2023/06/18 09:49:45;;;;;;;;;;;;;;;;;;137796;1266;22496;-83
2023/06/18 09:52:48;;;;;;;;;;;;;;;;;;137817;1271;22413;-83
2023/06/18 09:55:50;;;;;;;;;;;;;;;;;;137905;1271;22332;-82
2023/06/18 09:58:53;;;;;;;;;;;;;;;;;;137691;1271;22561;-83
2023/06/18 10:01:55;;;;;;;;;;;;;;;;;;137781;1271;22927;-82
2023/06/18 10:04:58;;;;;;;;;;;;;;;;;;137731;1271;22519;-82
2023/06/18 10:08:01;;;;;;;;;;;;;;;;;;137853;1271;22487;-83
2023/06/18 10:11:04;;;;;;;;;;;;;;;;;;137849;1271;22792;-83
2023/06/18 10:14:06;;;;;;;;;;;;;;;;;;137782;1271;22489;-84
2023/06/18 10:17:09;;;;;;;;;;;;;;;;;;137806;1271;22320;-83
2023/06/18 10:20:12;;;;;;;;;;;;;;;;;;137825;1271;22353;-83
2023/06/18 10:23:14;;;;;;;;;;;;;;;;;;137802;1271;22383;-80
2023/06/18 10:26:16;;;;;;;;;;;;;;;;;;137823;1271;22319;-81
2023/06/18 10:29:19;;;;;;;;;;;;;;;;;;137808;1271;22322;-83
2023/06/18 10:32:22;;;;;;;;;;;;;;;;;;137795;1271;22363;-84
2023/06/18 10:35:25;;;;;;;;;;;;;;;;;;137832;1260;22315;-84
2023/06/18 10:38:27;;;;;;;;;;;;;;;;;;137822;1271;22322;-84
2023/06/18 10:41:30;;;;;;;;;;;;;;;;;;137747;1271;22542;-84
2023/06/18 10:44:32;;;;;;;;;;;;;;;;;;137782;1271;22530;-84
2023/06/18 10:47:35;;;;;;;;;;;;;;;;;;137552;1271;22465;-83
2023/06/18 10:50:37;;;;;;;;;;;;;;;;;;137801;1271;22876;-84
2023/06/18 10:53:40;;;;;;;;;;;;;;;;;;137806;1271;22492;-85
2023/06/18 10:56:42;;;;;;;;;;;;;;;;;;137806;1271;22499;-85
2023/06/18 10:59:45;;;;;;;;;;;;;;;;;;137792;1271;22590;-85
2023/06/18 11:02:49;;;;;;;;;;;;;;;;;;137781;1271;22532;-84
2023/06/18 11:05:53;;;;;;;;;;;;;;;;;;137677;1271;22531;-84
2023/06/18 11:08:56;;;;;;;;;;;;;;;;;;137889;1271;22484;-84
2023/06/18 11:11:58;;;;;;;;;;;;;;;;;;137633;1271;22534;-84
2023/06/18 11:15:00;;;;;;;;;;;;;;;;;;137833;1267;22498;-84
2023/06/18 11:18:03;;;;;;;;;;;;;;;;;;137759;1271;22485;-84
2023/06/18 11:21:05;;;;;;;;;;;;;;;;;;137834;1271;22513;-84
2023/06/18 11:24:10;;;;;;;;;;;;;;;;;;137803;1263;22499;-85
2023/06/18 11:27:13;;;;;;;;;;;;;;;;;;137726;1271;22503;-84
2023/06/18 11:30:16;;;;;;;;;;;;;;;;;;137791;1271;22500;-84
2023/06/18 11:33:19;;;;;;;;;;;;;;;;;;137810;1271;22497;-84
2023/06/18 11:36:22;;;;;;;;;;;;;;;;;;137816;1271;22535;-84
2023/06/18 11:39:24;;;;;;;;;;;;;;;;;;137785;1271;22510;-82
2023/06/18 11:42:27;;;;;;;;;;;;;;;;;;137802;1271;22539;-83
2023/06/18 11:45:29;;;;;;;;;;;;;;;;;;137780;1271;22458;-84
2023/06/18 11:48:32;;;;;;;;;;;;;;;;;;137784;1271;22484;-84
2023/06/18 11:51:34;;;;;;;;;;;;;;;;;;137598;1271;22540;-84
2023/06/18 11:54:37;;;;;;;;;;;;;;;;;;137746;1271;22564;-83
2023/06/18 11:57:40;;;;;;;;;;;;;;;;;;137647;1271;22561;-84
2023/06/18 12:00:42;;;;;;;;;;;;;;;;;;137749;1271;22477;-85
2023/06/18 12:03:45;;;;;;;;;;;;;;;;;;137622;1264;22491;-84
2023/06/18 12:06:47;;;;;;;;;;;;;;;;;;137689;1271;22503;-84
2023/06/18 12:09:50;;;;;;;;;;;;;;;;;;137677;1271;22593;-84
2023/06/18 12:12:52;;;;;;;;;;;;;;;;;;137714;1266;22531;-84
2023/06/18 12:15:55;;;;;;;;;;;;;;;;;;137801;1271;22514;-84
2023/06/18 12:19:00;;;;;;;;;;;;;;;;;;137877;1271;22487;-84
2023/06/18 12:22:02;;;;;;;;;;;;;;;;;;137875;1271;22527;-85
2023/06/18 12:25:05;;;;;;;;;;;;;;;;;;137769;1271;22542;-85
2023/06/18 12:28:07;;;;;;;;;;;;;;;;;;137803;1271;22897;-83
2023/06/18 12:31:11;;;;;;;;;;;;;;;;;;137854;1271;22510;-84
2023/06/18 12:34:13;;;;;;;;;;;;;;;;;;137603;1266;22556;-85
2023/06/18 12:37:16;;;;;;;;;;;;;;;;;;137774;1271;22523;-83
2023/06/18 12:40:19;;;;;;;;;;;;;;;;;;137696;1271;22436;-84
2023/06/18 12:43:22;;;;;;;;;;;;;;;;;;137760;1271;22485;-84
2023/06/18 12:46:25;;;;;;;;;;;;;;;;;;137819;1271;22515;-85
2023/06/18 12:49:27;;;;;;;;;;;;;;;;;;137761;1264;22495;-85
2023/06/18 12:52:30;;;;;;;;;;;;;;;;;;137692;1271;23058;-84
2023/06/18 12:55:32;;;;;;;;;;;;;;;;;;137680;1271;22536;-85
2023/06/18 12:58:35;;;;;;;;;;;;;;;;;;137847;1271;22544;-83
2023/06/18 13:01:38;;;;;;;;;;;;;;;;;;137723;1271;22545;-83
2023/06/18 13:04:41;;;;;;;;;;;;;;;;;;137500;1271;22488;-85
2023/06/18 13:07:44;;;;;;;;;;;;;;;;;;137328;1271;22563;-85
2023/06/18 13:10:46;;;;;;;;;;;;;;;;;;137801;1266;22580;-85
2023/06/18 13:13:49;;;;;;;;;;;;;;;;;;137674;1271;22675;-85
2023/06/18 13:16:51;;;;;;;;;;;;;;;;;;137475;1271;22516;-84
2023/06/18 13:19:54;;;;;;;;;;;;;;;;;;137422;1271;22652;-83
2023/06/18 13:22:58;;;;;;;;;;;;;;;;;;137559;1271;22479;-85
2023/06/18 13:26:00;;;;;;;;;;;;;;;;;;137773;1271;22482;-85
2023/06/18 13:29:03;;;;;;;;;;;;;;;;;;137649;1271;24225;-84
2023/06/18 13:32:06;;;;;;;;;;;;;;;;;;137509;1271;22532;-84
2023/06/18 13:35:08;;;;;;;;;;;;;;;;;;137524;1271;22915;-85
2023/06/18 13:38:11;;;;;;;;;;;;;;;;;;137749;1271;23044;-84
2023/06/18 13:41:15;;;;;;;;;;;;;;;;;;137555;1256;22893;-84
2023/06/18 13:44:18;;;;;;;;;;;;;;;;;;137901;1271;22475;-84
2023/06/18 13:47:20;;;;;;;;;;;;;;;;;;137530;1271;22654;-85
2023/06/18 13:50:23;;;;;;;;;;;;;;;;;;137679;1271;22504;-85
2023/06/18 13:53:25;;;;;;;;;;;;;;;;;;137868;1271;22961;-85
2023/06/18 13:56:29;;;;;;;;;;;;;;;;;;137761;1271;22505;-84
2023/06/18 13:59:32;;;;;;;;;;;;;;;;;;137672;1271;22597;-84
2023/06/18 14:02:34;;;;;;;;;;;;;;;;;;137734;1271;22506;-84
2023/06/18 14:05:37;;;;;;;;;;;;;;;;;;137739;1271;22504;-84
2023/06/18 14:08:40;;;;;;;;;;;;;;;;;;137862;1271;22485;-85
2023/06/18 14:11:42;;;;;;;;;;;;;;;;;;137737;1271;22488;-86
2023/06/18 14:14:45;;;;;;;;;;;;;;;;;;137828;1271;22563;-85
2023/06/18 14:17:47;;;;;;;;;;;;;;;;;;137800;1271;22515;-85
2023/06/18 14:20:50;;;;;;;;;;;;;;;;;;137860;1260;22513;-85
2023/06/18 14:23:53;;;;;;;;;;;;;;;;;;137847;1271;22535;-85
2023/06/18 14:26:55;;;;;;;;;;;;;;;;;;137864;1271;22527;-84
2023/06/18 14:29:57;;;;;;;;;;;;;;;;;;137867;1271;23158;-85
2023/06/18 14:33:00;;;;;;;;;;;;;;;;;;137862;1271;22541;-85
2023/06/18 14:36:02;;;;;;;;;;;;;;;;;;137776;1271;22493;-87
2023/06/18 14:39:05;;;;;;;;;;;;;;;;;;137861;1271;22519;-85
2023/06/18 14:42:08;;;;;;;;;;;;;;;;;;137786;1271;22883;-85
2023/06/18 14:45:10;;;;;;;;;;;;;;;;;;137616;1271;22499;-86
2023/06/18 14:48:13;;;;;;;;;;;;;;;;;;137806;1271;22518;-86
2023/06/18 14:51:15;;;;;;;;;;;;;;;;;;137747;1271;22540;-86
2023/06/18 14:54:20;;;;;;;;;;;;;;;;;;137725;1263;22916;-85
2023/06/18 14:57:23;;;;;;;;;;;;;;;;;;137795;1271;22520;-85
2023/06/18 15:00:25;;;;;;;;;;;;;;;;;;137778;1271;23098;-85
2023/06/18 15:03:27;;;;;;;;;;;;;;;;;;137621;1271;22505;-86
2023/06/18 15:06:31;;;;;;;;;;;;;;;;;;137676;1271;25832;-85
2023/06/18 15:09:34;;;;;;;;;;;;;;;;;;137722;1271;22530;-86
2023/06/18 15:12:39;;;;;;;;;;;;;;;;;;137768;1271;22515;-86
2023/06/18 15:15:41;;;;;;;;;;;;;;;;;;137589;1271;22529;-87
2023/06/18 15:18:46;;;;;;;;;;;;;;;;;;137796;1271;22523;-86
2023/06/18 15:21:48;;;;;;;;;;;;;;;;;;137607;1271;22514;-86
2023/06/18 15:24:51;;;;;;;;;;;;;;;;;;137706;1271;22510;-86
2023/06/18 15:27:53;;;;;;;;;;;;;;;;;;137608;1271;22475;-84
2023/06/18 15:30:56;;;;;;;;;;;;;;;;;;137585;1266;22511;-85
2023/06/18 15:33:58;;;;;;;;;;;;;;;;;;137657;1271;22558;-84
2023/06/18 15:37:01;;;;;;;;;;;;;;;;;;137614;1267;22547;-84
2023/06/18 15:40:03;;;;;;;;;;;;;;;;;;137598;1271;22571;-85
2023/06/18 15:43:06;;;;;;;;;;;;;;;;;;137629;1271;22539;-84
2023/06/18 15:46:10;;;;;;;;;;;;;;;;;;137608;1271;22969;-84
2023/06/18 15:49:13;;;;;;;;;;;;;;;;;;137646;1271;22547;-85
2023/06/18 15:52:15;;;;;;;;;;;;;;;;;;137557;1271;23050;-85
2023/06/18 15:55:19;;;;;;;;;;;;;;;;;;137723;1271;22479;-85
2023/06/18 15:58:21;;;;;;;;;;;;;;;;;;137741;1271;22542;-86
2023/06/18 16:01:23;;;;;;;;;;;;;;;;;;137605;1271;22526;-86
2023/06/18 16:04:26;;;;;;;;;;;;;;;;;;137835;1271;22505;-85
2023/06/18 16:07:29;;;;;;;;;;;;;;;;;;137677;1271;22497;-85
2023/06/18 16:10:32;;;;;;;;;;;;;;;;;;137860;1271;22480;-85
2023/06/18 16:13:34;;;;;;;;;;;;;;;;;;137751;1271;22557;-86
2023/06/18 16:16:37;;;;;;;;;;;;;;;;;;137807;1271;22654;-86
2023/06/18 16:19:40;;;;;;;;;;;;;;;;;;137777;1271;22516;-87
2023/06/18 16:22:43;;;;;;;;;;;;;;;;;;137750;1271;22382;-86
2023/06/18 16:25:45;;;;;;;;;;;;;;;;;;137834;1271;22281;-86
2023/06/18 16:28:48;;;;;;;;;;;;;;;;;;137875;1271;22225;-86
2023/06/18 16:31:50;;;;;;;;;;;;;;;;;;137761;1271;22580;-86
2023/06/18 16:34:53;;;;;;;;;;;;;;;;;;137806;1271;22489;-85
2023/06/18 16:37:55;;;;;;;;;;;;;;;;;;137641;1271;22544;-87
2023/06/18 16:40:57;;;;;;;;;;;;;;;;;;137778;1271;22520;-86
2023/06/18 16:44:00;;;;;;;;;;;;;;;;;;137798;1271;22543;-86
2023/06/18 16:47:02;;;;;;;;;;;;;;;;;;137815;1271;22479;-86
2023/06/18 16:50:05;;;;;;;;;;;;;;;;;;137719;1271;22535;-85
2023/06/18 16:53:10;;;;;;;;;;;;;;;;;;137787;1271;22612;-85
2023/06/18 16:56:12;;;;;;;;;;;;;;;;;;137803;1271;22489;-83
2023/06/18 16:59:15;;;;;;;;;;;;;;;;;;137769;1271;22528;-85
2023/06/18 17:02:17;;;;;;;;;;;;;;;;;;137899;1271;22468;-85
2023/06/18 17:05:20;;;;;;;;;;;;;;;;;;137754;1264;22549;-85
2023/06/18 17:08:23;;;;;;;;;;;;;;;;;;137666;1271;22958;-84
2023/06/18 17:11:25;;;;;;;;;;;;;;;;;;137912;1260;22528;-86
2023/06/18 17:14:28;;;;;;;;;;;;;;;;;;137589;1271;22972;-85
2023/06/18 17:17:30;;;;;;;;;;;;;;;;;;137778;1271;22543;-86
2023/06/18 17:20:33;;;;;;;;;;;;;;;;;;137761;1271;22323;-86
2023/06/18 17:23:35;;;;;;;;;;;;;;;;;;137941;1252;22330;-87
2023/06/18 17:26:38;;;;;;;;;;;;;;;;;;137888;1272;23206;-86
2023/06/18 17:29:41;;;;;;;;;;;;;;;;;;137862;1271;22503;-86
2023/06/18 17:32:44;;;;;;;;;;;;;;;;;;137767;1272;22521;-86
2023/06/18 17:35:47;;;;;;;;;;;;;;;;;;137754;1271;22503;-87
2023/06/18 17:38:51;;;;;;;;;;;;;;;;;;137765;1271;22508;-86
2023/06/18 17:41:53;;;;;;;;;;;;;;;;;;137805;1272;22503;-86
2023/06/18 17:44:58;;;;;;;;;;;;;;;;;;137868;1267;22315;-86
2023/06/18 17:48:01;;;;;;;;;;;;;;;;;;137219;1271;23119;-86
2023/06/18 17:51:04;;;;;;;;;;;;;;;;;;137774;1271;22536;-86
2023/06/18 17:54:07;;;;;;;;;;;;;;;;;;137783;1271;23137;-86
2023/06/18 17:57:09;;;;;;;;;;;;;;;;;;137621;1271;22521;-85
2023/06/18 18:00:12;;;;;;;;;;;;;;;;;;137970;1271;22273;-85
2023/06/18 18:03:14;;;;;;;;;;;;;;;;;;137925;1271;22390;-85
2023/06/18 18:06:17;;;;;;;;;;;;;;;;;;137740;1271;195640;-85
2023/06/18 18:09:19;;;;;;;;;;;;;;;;;;137941;1271;22319;-85
2023/06/18 18:12:22;;;;;;;;;;;;;;;;;;137931;1271;22349;-85
2023/06/18 18:15:24;;;;;;;;;;;;;;;;;;137791;1271;22519;-85
2023/06/18 18:18:30;;;;;;;;;;;;;;;;;;137792;1254;22489;-85
2023/06/18 18:21:32;;;;;;;;;;;;;;;;;;137947;1271;22273;-85
2023/06/18 18:24:35;;;;;;;;;;;;;;;;;;137836;1267;22505;-86
2023/06/18 18:27:38;;;;;;;;;;;;;;;;;;137968;1267;22524;-87
2023/06/18 18:30:40;;;;;;;;;;;;;;;;;;137704;1271;22559;-85
2023/06/18 18:33:43;;;;;;;;;;;;;;;;;;137918;1272;22543;-86
2023/06/18 18:36:45;;;;;;;;;;;;;;;;;;137919;1271;22584;-86
2023/06/18 18:39:50;;;;;;;;;;;;;;;;;;137866;1271;22537;-86
2023/06/18 18:42:52;;;;;;;;;;;;;;;;;;137670;1272;22519;-84
2023/06/18 18:45:55;;;;;;;;;;;;;;;;;;137815;1267;22587;-84
2023/06/18 18:48:57;;;;;;;;;;;;;;;;;;137734;1268;22507;-85
2023/06/18 18:52:00;;;;;;;;;;;;;;;;;;137686;1271;22543;-85
2023/06/18 18:55:02;;;;;;;;;;;;;;;;;;137880;1271;22550;-86
2023/06/18 18:58:04;;;;;;;;;;;;;;;;;;137852;1271;22561;-85
2023/06/18 19:01:07;;;;;;;;;;;;;;;;;;137684;1271;25284;-84
2023/06/18 19:04:09;;;;;;;;;;;;;;;;;;137628;1271;22527;-85
2023/06/18 19:07:12;;;;;;;;;;;;;;;;;;137708;1271;22483;-85
2023/06/18 19:10:14;;;;;;;;;;;;;;;;;;137656;1271;22526;-85
2023/06/18 19:13:17;;;;;;;;;;;;;;;;;;137876;1271;22531;-85
2023/06/18 19:16:20;;;;;;;;;;;;;;;;;;137516;1272;23056;-85
2023/06/18 19:19:24;;;;;;;;;;;;;;;;;;137667;1271;22578;-86
2023/06/18 19:22:31;;;;;;;;;;;;;;;;;;137718;1271;22512;-86
2023/06/18 19:25:34;;;;;;;;;;;;;;;;;;137602;1271;22533;-85
2023/06/18 19:28:36;;;;;;;;;;;;;;;;;;137702;1271;22495;-85
2023/06/18 19:31:39;;;;;;;;;;;;;;;;;;137872;1271;22544;-85
2023/06/18 19:34:42;;;;;;;;;;;;;;;;;;137851;1272;22498;-85
2023/06/18 19:37:44;;;;;;;;;;;;;;;;;;137729;1269;22531;-85
2023/06/18 19:40:47;;;;;;;;;;;;;;;;;;137777;1271;22507;-85
2023/06/18 19:43:49;;;;;;;;;;;;;;;;;;137896;1272;22370;-85
2023/06/18 19:46:52;;;;;;;;;;;;;;;;;;137711;1272;22480;-85
2023/06/18 19:49:54;;;;;;;;;;;;;;;;;;137675;1272;22513;-85
2023/06/18 19:52:57;;;;;;;;;;;;;;;;;;137857;1270;22512;-85
2023/06/18 19:55:59;;;;;;;;;;;;;;;;;;137877;1267;22296;-85
2023/06/18 19:59:02;;;;;;;;;;;;;;;;;;137716;1271;22485;-85
2023/06/18 20:02:05;;;;;;;;;;;;;;;;;;137704;1271;22516;-85
2023/06/18 20:05:07;;;;;;;;;;;;;;;;;;137700;1271;22492;-85
2023/06/18 20:08:12;;;;;;;;;;;;;;;;;;137769;1271;22501;-85
2023/06/18 20:11:15;;;;;;;;;;;;;;;;;;137594;1271;22507;-85
2023/06/18 20:14:17;;;;;;;;;;;;;;;;;;137839;1271;22500;-85
2023/06/18 20:17:23;;;;;;;;;;;;;;;;;;137696;1272;22533;-84
2023/06/18 20:20:25;;;;;;;;;;;;;;;;;;137724;1271;22549;-85
2023/06/18 20:23:29;;;;;;;;;;;;;;;;;;137631;1271;22516;-85
2023/06/18 20:26:32;;;;;;;;;;;;;;;;;;137905;1271;22512;-85